Hiseville, KY (42152)

8:14 PM CDT on October 21, 2014 (GMT -0500)
KKYCAVEC2 | Change Station
CLOSE
Current Station
Personal Weather Station
Location: Cave City, KY
Elevation: 695 ft
Nearby Weather Stations

Elev 695 ft 37.13 °N, 85.86 °W | Updated 18 minutes ago

Overcast
Overcast
53.8 °F
Feels Like 53.8 °F
N
0.8
Wind Variable Wind from NE
Gusts 2.3 mph

Today
High -- | Low -- °F
--% Chance of Precip.
Yesterday
High -- | Low -- °F
Precip. -- in
6:56 AM 5:58 PM
Waning Crescent, 3% visible
Pressure 30.12 in
Visibility 10.0 miles
Clouds Overcast 5000 ft
Dew Point 45 °F
Humidity 73%
Rainfall 0.01 in
Snow Depth Not available.
UV 0 out of 12
Pollen 1.90 out of 12
Air Quality Not available.
Flu Activity Sporadic
METAR KGLW 220055Z AUTO 03003KT 10SM OVC050 12/05 A3012 RMK AO2 T01200054

More Conditions Fewer Conditions

Pressure 30.12 in
Visibility 10.0 miles
Clouds Overcast 5000 ft
Dew Point 45 °F
Humidity 73%
Rainfall 0.01 in
Snow Depth Not available.
UV 0 out of 12
Pollen 1.90 out of 12
Air Quality Not available.
Flu Activity Sporadic
METAR KGLW 220055Z AUTO 03003KT 10SM OVC050 12/05 A3012 RMK AO2 T01200054

More Conditions Fewer Conditions

10-Day Weather Forecast

Almanac

Astronomy

Oct. 21, 2014 Rise Set
Actual Time 6:56 AM CDT 5:58 PM CDT
Civil Twilight 6:30 AM CDT 6:24 PM CDT
Nautical Twilight 5:59 AM CDT 6:55 PM CDT
Astronomical Twilight 5:29 AM CDT 7:25 PM CDT
Moon 4:43 AM CDT (10/21) 4:49 PM CDT (10/21)
Length of Visible Light 11h 54m
Length of Day
11h 01m
Tomorrow will be 2m 14s shorter.
Waning Crescent, 3% of the Moon is Illuminated
Today
Waning Crescent
Oct 23
New
Oct 30
First Quarter
Nov 6
Full
Nov 14
Last Quarter

Today's Extremes

State Highs State Lows

Community

WunderPhotos

Upload Photos

1,763,841 photos uploaded!

Nearby

Snow Depth

Station Depth Elevation
No new snow has been reported.

Earthquake Activity

City Distance Mag. Time & Date
No recent earthquake activity has been reported nearby.
Minimum magnitude displayed is 2.5.

Coastal Water Temperatures

Place Temperature
No Stations Reporting

Nearby Weather Stations